sensor_id;sensor_type;location;lat;lon;timestamp;temperature;humidity
10512;DHT22;5304;48.604;2.096;2022-10-04T00:02:27;7.30;99.90
10512;DHT22;5304;48.604;2.096;2022-10-04T00:05:17;7.40;99.90
10512;DHT22;5304;48.604;2.096;2022-10-04T00:14:34;7.30;99.90
10512;DHT22;5304;48.604;2.096;2022-10-04T00:17:27;7.30;99.90
10512;DHT22;5304;48.604;2.096;2022-10-04T00:29:29;7.30;99.90
10512;DHT22;5304;48.604;2.096;2022-10-04T00:32:24;7.30;99.90
10512;DHT22;5304;48.604;2.096;2022-10-04T00:38:14;7.30;99.90
10512;DHT22;5304;48.604;2.096;2022-10-04T00:41:05;7.40;99.90
10512;DHT22;5304;48.604;2.096;2022-10-04T00:43:53;7.40;99.90
10512;DHT22;5304;48.604;2.096;2022-10-04T00:46:39;7.30;99.90
10512;DHT22;5304;48.604;2.096;2022-10-04T00:49:31;7.40;99.90
10512;DHT22;5304;48.604;2.096;2022-10-04T00:52:24;7.40;99.90
10512;DHT22;5304;48.604;2.096;2022-10-04T00:55:09;7.30;99.90
10512;DHT22;5304;48.604;2.096;2022-10-04T00:58:23;7.20;99.90
10512;DHT22;5304;48.604;2.096;2022-10-04T01:01:08;7.10;99.90
10512;DHT22;5304;48.604;2.096;2022-10-04T01:03:55;7.20;99.90
10512;DHT22;5304;48.604;2.096;2022-10-04T01:06:41;7.10;99.90
10512;DHT22;5304;48.604;2.096;2022-10-04T01:09:26;7.00;99.90
10512;DHT22;5304;48.604;2.096;2022-10-04T01:12:44;7.00;99.90
10512;DHT22;5304;48.604;2.096;2022-10-04T01:16:22;7.00;99.90
10512;DHT22;5304;48.604;2.096;2022-10-04T01:18:40;6.90;99.90
10512;DHT22;5304;48.604;2.096;2022-10-04T01:21:27;6.80;99.90
10512;DHT22;5304;48.604;2.096;2022-10-04T01:24:20;6.70;99.90
10512;DHT22;5304;48.604;2.096;2022-10-04T01:27:35;6.70;99.90
10512;DHT22;5304;48.604;2.096;2022-10-04T01:30:20;6.60;99.90
10512;DHT22;5304;48.604;2.096;2022-10-04T01:33:05;6.60;99.90
10512;DHT22;5304;48.604;2.096;2022-10-04T01:35:50;6.60;99.90
10512;DHT22;5304;48.604;2.096;2022-10-04T01:38:35;6.60;99.90
10512;DHT22;5304;48.604;2.096;2022-10-04T01:41:42;6.60;99.90
10512;DHT22;5304;48.604;2.096;2022-10-04T01:47:58;6.50;99.90
10512;DHT22;5304;48.604;2.096;2022-10-04T01:51:07;6.50;99.90
10512;DHT22;5304;48.604;2.096;2022-10-04T01:53:58;6.50;99.90
10512;DHT22;5304;48.604;2.096;2022-10-04T01:56:47;6.50;99.90
10512;DHT22;5304;48.604;2.096;2022-10-04T01:59:41;6.50;99.90
10512;DHT22;5304;48.604;2.096;2022-10-04T02:05:39;6.60;99.90
10512;DHT22;5304;48.604;2.096;2022-10-04T02:08:31;6.60;99.90
10512;DHT22;5304;48.604;2.096;2022-10-04T02:11:18;6.50;99.90
10512;DHT22;5304;48.604;2.096;2022-10-04T02:14:11;6.40;99.90
10512;DHT22;5304;48.604;2.096;2022-10-04T02:17:00;6.30;99.90
10512;DHT22;5304;48.604;2.096;2022-10-04T02:19:46;6.30;99.90
10512;DHT22;5304;48.604;2.096;2022-10-04T02:22:32;6.20;99.90
10512;DHT22;5304;48.604;2.096;2022-10-04T02:25:18;6.20;99.90
10512;DHT22;5304;48.604;2.096;2022-10-04T02:28:04;6.10;99.90
10512;DHT22;5304;48.604;2.096;2022-10-04T02:30:54;6.10;99.90
10512;DHT22;5304;48.604;2.096;2022-10-04T02:33:59;6.10;99.90
10512;DHT22;5304;48.604;2.096;2022-10-04T02:36:44;6.10;99.90
10512;DHT22;5304;48.604;2.096;2022-10-04T02:39:41;6.10;99.90
10512;DHT22;5304;48.604;2.096;2022-10-04T02:42:55;6.20;99.90
10512;DHT22;5304;48.604;2.096;2022-10-04T02:45:52;6.10;99.90
10512;DHT22;5304;48.604;2.096;2022-10-04T02:51:33;6.20;99.90
10512;DHT22;5304;48.604;2.096;2022-10-04T02:57:32;6.50;99.90
10512;DHT22;5304;48.604;2.096;2022-10-04T03:00:20;6.60;99.90
10512;DHT22;5304;48.604;2.096;2022-10-04T03:06:11;6.40;99.90
10512;DHT22;5304;48.604;2.096;2022-10-04T03:09:02;6.50;99.90
10512;DHT22;5304;48.604;2.096;2022-10-04T03:11:49;6.60;99.90
10512;DHT22;5304;48.604;2.096;2022-10-04T03:14:34;6.60;99.90
10512;DHT22;5304;48.604;2.096;2022-10-04T03:17:21;6.60;99.90
10512;DHT22;5304;48.604;2.096;2022-10-04T03:20:06;6.60;99.90
10512;DHT22;5304;48.604;2.096;2022-10-04T03:22:55;6.80;99.90
10512;DHT22;5304;48.604;2.096;2022-10-04T03:28:30;6.60;99.90
10512;DHT22;5304;48.604;2.096;2022-10-04T03:31:15;6.70;99.90
10512;DHT22;5304;48.604;2.096;2022-10-04T03:34:00;6.60;99.90
10512;DHT22;5304;48.604;2.096;2022-10-04T03:36:46;6.60;99.90
10512;DHT22;5304;48.604;2.096;2022-10-04T03:39:45;6.60;99.90
10512;DHT22;5304;48.604;2.096;2022-10-04T03:42:33;6.60;99.90
10512;DHT22;5304;48.604;2.096;2022-10-04T03:45:20;6.50;99.90
10512;DHT22;5304;48.604;2.096;2022-10-04T03:48:11;6.60;99.90
10512;DHT22;5304;48.604;2.096;2022-10-04T03:50:57;6.60;99.90
10512;DHT22;5304;48.604;2.096;2022-10-04T03:53:47;6.50;99.90
10512;DHT22;5304;48.604;2.096;2022-10-04T03:56:34;6.50;99.90
10512;DHT22;5304;48.604;2.096;2022-10-04T03:59:22;6.50;99.90
10512;DHT22;5304;48.604;2.096;2022-10-04T04:11:05;6.60;99.90
10512;DHT22;5304;48.604;2.096;2022-10-04T04:14:07;6.60;99.90
10512;DHT22;5304;48.604;2.096;2022-10-04T04:17:27;6.70;99.90
10512;DHT22;5304;48.604;2.096;2022-10-04T04:23:22;6.50;99.90
10512;DHT22;5304;48.604;2.096;2022-10-04T04:26:43;6.50;99.90
10512;DHT22;5304;48.604;2.096;2022-10-04T04:29:58;6.50;99.90
10512;DHT22;5304;48.604;2.096;2022-10-04T04:32:48;6.40;99.90
10512;DHT22;5304;48.604;2.096;2022-10-04T04:35:34;6.40;99.90
10512;DHT22;5304;48.604;2.096;2022-10-04T04:38:22;6.50;99.90
10512;DHT22;5304;48.604;2.096;2022-10-04T04:41:09;6.50;99.90
10512;DHT22;5304;48.604;2.096;2022-10-04T04:43:54;6.60;99.90
10512;DHT22;5304;48.604;2.096;2022-10-04T04:46:39;6.70;99.90
10512;DHT22;5304;48.604;2.096;2022-10-04T04:49:28;6.80;99.90
10512;DHT22;5304;48.604;2.096;2022-10-04T04:52:15;7.00;99.90
10512;DHT22;5304;48.604;2.096;2022-10-04T04:55:01;7.00;99.90
10512;DHT22;5304;48.604;2.096;2022-10-04T04:57:49;7.00;99.90
10512;DHT22;5304;48.604;2.096;2022-10-04T05:00:36;7.00;99.90
10512;DHT22;5304;48.604;2.096;2022-10-04T05:03:21;7.00;99.90
10512;DHT22;5304;48.604;2.096;2022-10-04T05:06:24;7.00;99.90
10512;DHT22;5304;48.604;2.096;2022-10-04T05:09:30;7.00;99.90
10512;DHT22;5304;48.604;2.096;2022-10-04T05:12:19;7.00;99.90
10512;DHT22;5304;48.604;2.096;2022-10-04T05:15:07;6.90;99.90
10512;DHT22;5304;48.604;2.096;2022-10-04T05:17:52;7.00;99.90
10512;DHT22;5304;48.604;2.096;2022-10-04T05:20:37;7.00;99.90
10512;DHT22;5304;48.604;2.096;2022-10-04T05:23:22;7.00;99.90
10512;DHT22;5304;48.604;2.096;2022-10-04T05:26:10;7.00;99.90
10512;DHT22;5304;48.604;2.096;2022-10-04T05:29:00;7.00;99.90
10512;DHT22;5304;48.604;2.096;2022-10-04T05:34:39;7.00;99.90
10512;DHT22;5304;48.604;2.096;2022-10-04T05:37:38;7.00;99.90
10512;DHT22;5304;48.604;2.096;2022-10-04T05:43:26;7.00;99.90
10512;DHT22;5304;48.604;2.096;2022-10-04T05:46:19;7.10;99.90
10512;DHT22;5304;48.604;2.096;2022-10-04T05:49:11;7.10;99.90
10512;DHT22;5304;48.604;2.096;2022-10-04T05:52:00;7.10;99.90
10512;DHT22;5304;48.604;2.096;2022-10-04T05:54:45;7.10;99.90
10512;DHT22;5304;48.604;2.096;2022-10-04T06:23:04;7.10;99.90
10512;DHT22;5304;48.604;2.096;2022-10-04T06:28:44;7.10;99.90
10512;DHT22;5304;48.604;2.096;2022-10-04T06:31:59;7.10;99.90
10512;DHT22;5304;48.604;2.096;2022-10-04T06:38:11;7.10;99.90
10512;DHT22;5304;48.604;2.096;2022-10-04T06:44:36;7.30;99.90
10512;DHT22;5304;48.604;2.096;2022-10-04T06:51:00;7.30;99.90
10512;DHT22;5304;48.604;2.096;2022-10-04T07:00:07;7.30;99.90
10512;DHT22;5304;48.604;2.096;2022-10-04T07:03:14;7.40;99.90
10512;DHT22;5304;48.604;2.096;2022-10-04T07:06:03;7.40;99.90
10512;DHT22;5304;48.604;2.096;2022-10-04T07:08:50;7.50;99.90
10512;DHT22;5304;48.604;2.096;2022-10-04T07:11:48;7.50;99.90
10512;DHT22;5304;48.604;2.096;2022-10-04T07:14:38;7.50;99.90
10512;DHT22;5304;48.604;2.096;2022-10-04T07:17:39;7.50;99.90
10512;DHT22;5304;48.604;2.096;2022-10-04T07:20:28;7.60;99.90
10512;DHT22;5304;48.604;2.096;2022-10-04T07:23:23;7.80;99.90
10512;DHT22;5304;48.604;2.096;2022-10-04T07:27:04;7.90;99.90
10512;DHT22;5304;48.604;2.096;2022-10-04T07:29:35;7.90;99.90
10512;DHT22;5304;48.604;2.096;2022-10-04T07:32:24;7.90;99.90
10512;DHT22;5304;48.604;2.096;2022-10-04T07:41:02;8.00;99.90
10512;DHT22;5304;48.604;2.096;2022-10-04T07:43:54;8.10;99.90
10512;DHT22;5304;48.604;2.096;2022-10-04T07:49:38;8.20;99.90
10512;DHT22;5304;48.604;2.096;2022-10-04T08:01:45;8.30;99.90
10512;DHT22;5304;48.604;2.096;2022-10-04T08:19:43;8.70;99.90
10512;DHT22;5304;48.604;2.096;2022-10-04T08:32:46;9.30;99.90
10512;DHT22;5304;48.604;2.096;2022-10-04T08:38:58;9.60;99.90
10512;DHT22;5304;48.604;2.096;2022-10-04T08:54:36;9.80;99.90
10512;DHT22;5304;48.604;2.096;2022-10-04T09:00:47;10.00;99.90
10512;DHT22;5304;48.604;2.096;2022-10-04T09:06:53;10.30;99.90
10512;DHT22;5304;48.604;2.096;2022-10-04T09:22:53;11.10;99.90
10512;DHT22;5304;48.604;2.096;2022-10-04T09:31:54;11.90;99.90
10512;DHT22;5304;48.604;2.096;2022-10-04T09:40:59;12.70;99.90
10512;DHT22;5304;48.604;2.096;2022-10-04T09:53:31;13.30;99.90
10512;DHT22;5304;48.604;2.096;2022-10-04T10:05:37;13.40;99.90
10512;DHT22;5304;48.604;2.096;2022-10-04T10:11:44;13.60;99.90
10512;DHT22;5304;48.604;2.096;2022-10-04T10:20:54;14.20;99.90
10512;DHT22;5304;48.604;2.096;2022-10-04T10:23:57;14.10;99.90
10512;DHT22;5304;48.604;2.096;2022-10-04T10:26:59;14.10;99.90
10512;DHT22;5304;48.604;2.096;2022-10-04T10:29:52;14.30;99.90
10512;DHT22;5304;48.604;2.096;2022-10-04T10:33:07;14.60;99.90
10512;DHT22;5304;48.604;2.096;2022-10-04T10:39:14;15.20;99.90
10512;DHT22;5304;48.604;2.096;2022-10-04T10:48:15;16.10;99.90
10512;DHT22;5304;48.604;2.096;2022-10-04T10:51:17;16.00;99.90
10512;DHT22;5304;48.604;2.096;2022-10-04T10:57:45;16.40;99.90
10512;DHT22;5304;48.604;2.096;2022-10-04T11:01:02;16.50;99.90
10512;DHT22;5304;48.604;2.096;2022-10-04T11:07:41;16.30;99.90
10512;DHT22;5304;48.604;2.096;2022-10-04T11:17:07;16.90;99.90
10512;DHT22;5304;48.604;2.096;2022-10-04T11:29:42;17.30;99.90
10512;DHT22;5304;48.604;2.096;2022-10-04T11:47:49;18.00;99.90
10512;DHT22;5304;48.604;2.096;2022-10-04T12:02:38;18.20;99.90
10512;DHT22;5304;48.604;2.096;2022-10-04T12:08:59;18.50;99.90
10512;DHT22;5304;48.604;2.096;2022-10-04T12:12:13;18.40;99.90
10512;DHT22;5304;48.604;2.096;2022-10-04T12:15:42;18.50;99.90
10512;DHT22;5304;48.604;2.096;2022-10-04T12:22:17;18.30;99.90
10512;DHT22;5304;48.604;2.096;2022-10-04T12:25:10;18.50;99.90
10512;DHT22;5304;48.604;2.096;2022-10-04T12:34:39;18.20;99.90
10512;DHT22;5304;48.604;2.096;2022-10-04T12:37:58;18.40;99.90
10512;DHT22;5304;48.604;2.096;2022-10-04T12:44:20;18.60;99.90
10512;DHT22;5304;48.604;2.096;2022-10-04T12:47:34;18.60;99.90
10512;DHT22;5304;48.604;2.096;2022-10-04T13:06:27;18.90;99.90
10512;DHT22;5304;48.604;2.096;2022-10-04T13:24:31;19.10;99.90
10512;DHT22;5304;48.604;2.096;2022-10-04T13:28:00;19.20;99.90
10512;DHT22;5304;48.604;2.096;2022-10-04T13:34:06;19.20;99.90
10512;DHT22;5304;48.604;2.096;2022-10-04T13:55:38;19.40;99.90
10512;DHT22;5304;48.604;2.096;2022-10-04T13:58:45;19.30;99.90
10512;DHT22;5304;48.604;2.096;2022-10-04T14:14:53;19.00;99.90
10512;DHT22;5304;48.604;2.096;2022-10-04T14:21:24;19.30;99.90
10512;DHT22;5304;48.604;2.096;2022-10-04T14:27:32;19.30;99.90
10512;DHT22;5304;48.604;2.096;2022-10-04T14:38:10;19.30;99.90
10512;DHT22;5304;48.604;2.096;2022-10-04T14:46:50;19.00;99.90
10512;DHT22;5304;48.604;2.096;2022-10-04T14:56:08;19.00;99.90
10512;DHT22;5304;48.604;2.096;2022-10-04T15:07:52;18.90;99.90
10512;DHT22;5304;48.604;2.096;2022-10-04T15:10:48;18.70;99.90
10512;DHT22;5304;48.604;2.096;2022-10-04T15:13:51;18.60;99.90
10512;DHT22;5304;48.604;2.096;2022-10-04T15:16:50;18.60;99.90
10512;DHT22;5304;48.604;2.096;2022-10-04T15:22:54;18.70;99.90
10512;DHT22;5304;48.604;2.096;2022-10-04T15:32:13;18.70;99.90
10512;DHT22;5304;48.604;2.096;2022-10-04T15:41:24;18.30;99.90
10512;DHT22;5304;48.604;2.096;2022-10-04T15:47:25;18.10;99.90
10512;DHT22;5304;48.604;2.096;2022-10-04T15:50:31;18.00;99.90
10512;DHT22;5304;48.604;2.096;2022-10-04T16:05:37;17.40;99.90
10512;DHT22;5304;48.604;2.096;2022-10-04T16:08:44;17.40;99.90
10512;DHT22;5304;48.604;2.096;2022-10-04T16:11:43;17.30;99.90
10512;DHT22;5304;48.604;2.096;2022-10-04T16:23:39;17.10;99.90
10512;DHT22;5304;48.604;2.096;2022-10-04T16:29:22;17.10;99.90
10512;DHT22;5304;48.604;2.096;2022-10-04T16:38:53;17.10;99.90
10512;DHT22;5304;48.604;2.096;2022-10-04T16:42:00;17.10;99.90
10512;DHT22;5304;48.604;2.096;2022-10-04T16:57:17;16.70;99.90
10512;DHT22;5304;48.604;2.096;2022-10-04T17:00:30;16.60;99.90
10512;DHT22;5304;48.604;2.096;2022-10-04T17:03:35;16.60;99.90
10512;DHT22;5304;48.604;2.096;2022-10-04T17:06:52;16.60;99.90
10512;DHT22;5304;48.604;2.096;2022-10-04T17:16:13;16.40;99.90
10512;DHT22;5304;48.604;2.096;2022-10-04T17:28:33;16.30;99.90
10512;DHT22;5304;48.604;2.096;2022-10-04T17:31:39;16.30;99.90
10512;DHT22;5304;48.604;2.096;2022-10-04T17:34:40;16.20;99.90
10512;DHT22;5304;48.604;2.096;2022-10-04T17:52:42;15.80;99.90
10512;DHT22;5304;48.604;2.096;2022-10-04T17:55:53;15.70;99.90
10512;DHT22;5304;48.604;2.096;2022-10-04T17:58:46;15.70;99.90
10512;DHT22;5304;48.604;2.096;2022-10-04T18:01:44;15.60;99.90
10512;DHT22;5304;48.604;2.096;2022-10-04T18:04:33;15.60;99.90
10512;DHT22;5304;48.604;2.096;2022-10-04T18:07:32;15.50;99.90
10512;DHT22;5304;48.604;2.096;2022-10-04T18:10:31;15.50;99.90
10512;DHT22;5304;48.604;2.096;2022-10-04T18:13:30;15.50;99.90
10512;DHT22;5304;48.604;2.096;2022-10-04T18:16:53;15.50;99.90
10512;DHT22;5304;48.604;2.096;2022-10-04T18:22:48;15.40;99.90
10512;DHT22;5304;48.604;2.096;2022-10-04T18:25:33;15.50;99.90
10512;DHT22;5304;48.604;2.096;2022-10-04T18:28:21;15.40;99.90
10512;DHT22;5304;48.604;2.096;2022-10-04T18:31:39;15.40;99.90
10512;DHT22;5304;48.604;2.096;2022-10-04T18:34:29;15.40;99.90
10512;DHT22;5304;48.604;2.096;2022-10-04T18:37:40;15.40;99.90
10512;DHT22;5304;48.604;2.096;2022-10-04T18:40:34;15.40;99.90
10512;DHT22;5304;48.604;2.096;2022-10-04T18:43:52;15.40;99.90
10512;DHT22;5304;48.604;2.096;2022-10-04T18:46:47;15.30;99.90
10512;DHT22;5304;48.604;2.096;2022-10-04T18:49:47;15.30;99.90
10512;DHT22;5304;48.604;2.096;2022-10-04T18:52:43;15.30;99.90
10512;DHT22;5304;48.604;2.096;2022-10-04T18:55:58;15.20;99.90
10512;DHT22;5304;48.604;2.096;2022-10-04T19:02:34;15.10;99.90
10512;DHT22;5304;48.604;2.096;2022-10-04T19:11:56;15.00;99.90
10512;DHT22;5304;48.604;2.096;2022-10-04T19:18:03;14.90;99.90
10512;DHT22;5304;48.604;2.096;2022-10-04T19:21:10;14.90;99.90
10512;DHT22;5304;48.604;2.096;2022-10-04T19:27:37;14.80;99.90
10512;DHT22;5304;48.604;2.096;2022-10-04T19:30:26;14.80;99.90
10512;DHT22;5304;48.604;2.096;2022-10-04T19:33:25;14.80;99.90
10512;DHT22;5304;48.604;2.096;2022-10-04T19:42:48;14.80;99.90
10512;DHT22;5304;48.604;2.096;2022-10-04T19:48:49;14.90;99.90
10512;DHT22;5304;48.604;2.096;2022-10-04T19:51:46;14.80;99.90
10512;DHT22;5304;48.604;2.096;2022-10-04T19:54:37;14.80;99.90
10512;DHT22;5304;48.604;2.096;2022-10-04T19:57:32;14.80;99.90
10512;DHT22;5304;48.604;2.096;2022-10-04T20:00:19;14.90;99.90
10512;DHT22;5304;48.604;2.096;2022-10-04T20:03:10;14.90;99.90
10512;DHT22;5304;48.604;2.096;2022-10-04T20:05:55;14.80;99.90
10512;DHT22;5304;48.604;2.096;2022-10-04T20:08:54;14.80;99.90
10512;DHT22;5304;48.604;2.096;2022-10-04T20:17:28;14.90;99.90
10512;DHT22;5304;48.604;2.096;2022-10-04T20:23:50;14.80;99.90
10512;DHT22;5304;48.604;2.096;2022-10-04T20:26:40;14.90;99.90
10512;DHT22;5304;48.604;2.096;2022-10-04T20:38:57;14.90;99.90
10512;DHT22;5304;48.604;2.096;2022-10-04T20:41:50;14.90;99.90
10512;DHT22;5304;48.604;2.096;2022-10-04T20:47:54;14.80;99.90
10512;DHT22;5304;48.604;2.096;2022-10-04T20:50:40;14.90;99.90
10512;DHT22;5304;48.604;2.096;2022-10-04T20:53:30;14.80;99.90
10512;DHT22;5304;48.604;2.096;2022-10-04T20:56:31;14.80;99.90
10512;DHT22;5304;48.604;2.096;2022-10-04T20:59:17;14.90;99.90
10512;DHT22;5304;48.604;2.096;2022-10-04T21:02:03;14.90;99.90
10512;DHT22;5304;48.604;2.096;2022-10-04T21:05:14;14.80;99.90
10512;DHT22;5304;48.604;2.096;2022-10-04T21:08:19;14.90;99.90
10512;DHT22;5304;48.604;2.096;2022-10-04T21:13:57;14.80;99.90
10512;DHT22;5304;48.604;2.096;2022-10-04T21:16:46;14.70;99.90
10512;DHT22;5304;48.604;2.096;2022-10-04T21:25:24;14.80;99.90
10512;DHT22;5304;48.604;2.096;2022-10-04T21:28:28;14.70;99.90
10512;DHT22;5304;48.604;2.096;2022-10-04T21:31:13;14.70;99.90
10512;DHT22;5304;48.604;2.096;2022-10-04T21:33:57;14.70;99.90
10512;DHT22;5304;48.604;2.096;2022-10-04T21:36:41;14.70;99.90
10512;DHT22;5304;48.604;2.096;2022-10-04T21:39:26;14.70;99.90
10512;DHT22;5304;48.604;2.096;2022-10-04T21:42:10;14.70;99.90
10512;DHT22;5304;48.604;2.096;2022-10-04T21:44:55;14.70;99.90
10512;DHT22;5304;48.604;2.096;2022-10-04T21:47:39;14.60;99.90
10512;DHT22;5304;48.604;2.096;2022-10-04T21:50:24;14.60;99.90
10512;DHT22;5304;48.604;2.096;2022-10-04T21:53:09;14.60;99.90
10512;DHT22;5304;48.604;2.096;2022-10-04T21:55:53;14.60;99.90
10512;DHT22;5304;48.604;2.096;2022-10-04T21:58:38;14.50;99.90
10512;DHT22;5304;48.604;2.096;2022-10-04T22:01:23;14.50;99.90
10512;DHT22;5304;48.604;2.096;2022-10-04T22:04:07;14.50;99.90
10512;DHT22;5304;48.604;2.096;2022-10-04T22:06:52;14.50;99.90
10512;DHT22;5304;48.604;2.096;2022-10-04T22:09:36;14.60;99.90
10512;DHT22;5304;48.604;2.096;2022-10-04T22:12:21;14.60;99.90
10512;DHT22;5304;48.604;2.096;2022-10-04T22:15:06;14.60;99.90
10512;DHT22;5304;48.604;2.096;2022-10-04T22:17:50;14.50;99.90
10512;DHT22;5304;48.604;2.096;2022-10-04T22:20:36;14.50;99.90
10512;DHT22;5304;48.604;2.096;2022-10-04T22:23:23;14.50;99.90
10512;DHT22;5304;48.604;2.096;2022-10-04T22:26:11;14.50;99.90
10512;DHT22;5304;48.604;2.096;2022-10-04T22:28:55;14.50;99.90
10512;DHT22;5304;48.604;2.096;2022-10-04T22:31:41;14.50;99.90
10512;DHT22;5304;48.604;2.096;2022-10-04T22:34:26;14.50;99.90
10512;DHT22;5304;48.604;2.096;2022-10-04T22:37:10;14.40;99.90
10512;DHT22;5304;48.604;2.096;2022-10-04T22:39:56;14.40;99.90
10512;DHT22;5304;48.604;2.096;2022-10-04T22:42:40;14.40;99.90
10512;DHT22;5304;48.604;2.096;2022-10-04T22:45:27;14.30;99.90
10512;DHT22;5304;48.604;2.096;2022-10-04T22:48:14;14.20;99.90
10512;DHT22;5304;48.604;2.096;2022-10-04T22:50:58;14.20;99.90
10512;DHT22;5304;48.604;2.096;2022-10-04T22:53:45;14.10;99.90
10512;DHT22;5304;48.604;2.096;2022-10-04T22:56:30;14.00;99.90
10512;DHT22;5304;48.604;2.096;2022-10-04T22:59:16;14.00;99.90
10512;DHT22;5304;48.604;2.096;2022-10-04T23:02:07;13.90;99.90
10512;DHT22;5304;48.604;2.096;2022-10-04T23:05:00;13.90;99.90
10512;DHT22;5304;48.604;2.096;2022-10-04T23:07:52;13.80;99.90
10512;DHT22;5304;48.604;2.096;2022-10-04T23:10:37;13.70;99.90
10512;DHT22;5304;48.604;2.096;2022-10-04T23:13:22;13.60;99.90
10512;DHT22;5304;48.604;2.096;2022-10-04T23:16:13;13.60;99.90
10512;DHT22;5304;48.604;2.096;2022-10-04T23:19:11;13.70;99.90
10512;DHT22;5304;48.604;2.096;2022-10-04T23:21:56;13.60;99.90
10512;DHT22;5304;48.604;2.096;2022-10-04T23:24:41;13.50;99.90
10512;DHT22;5304;48.604;2.096;2022-10-04T23:27:25;13.50;99.90
10512;DHT22;5304;48.604;2.096;2022-10-04T23:30:15;13.50;99.90
10512;DHT22;5304;48.604;2.096;2022-10-04T23:33:00;13.40;99.90
10512;DHT22;5304;48.604;2.096;2022-10-04T23:35:45;13.40;99.90
10512;DHT22;5304;48.604;2.096;2022-10-04T23:38:30;13.40;99.90
10512;DHT22;5304;48.604;2.096;2022-10-04T23:41:15;13.30;99.90
10512;DHT22;5304;48.604;2.096;2022-10-04T23:44:00;13.20;99.90
10512;DHT22;5304;48.604;2.096;2022-10-04T23:46:45;13.10;99.90
10512;DHT22;5304;48.604;2.096;2022-10-04T23:49:29;13.00;99.90
10512;DHT22;5304;48.604;2.096;2022-10-04T23:52:40;12.90;99.90
10512;DHT22;5304;48.604;2.096;2022-10-04T23:55:28;12.70;99.90
10512;DHT22;5304;48.604;2.096;2022-10-04T23:58:19;12.80;99.90
